createdAt,value
2023-05-09T00:01:10.462Z,45.79
2023-05-09T00:03:37.292Z,45.65
2023-05-09T00:06:05.058Z,45.77
2023-05-09T00:08:32.805Z,46.12
2023-05-09T00:11:00.561Z,46.52
2023-05-09T00:13:28.039Z,46.60
2023-05-09T00:15:56.813Z,46.84
2023-05-09T00:18:24.094Z,46.95
2023-05-09T00:20:50.896Z,46.89
2023-05-09T00:23:18.673Z,47.16
2023-05-09T00:25:45.480Z,47.59
2023-05-09T00:28:12.216Z,47.49
2023-05-09T00:30:38.944Z,47.62
2023-05-09T00:33:06.954Z,48.13
2023-05-09T00:35:34.359Z,47.73
2023-05-09T00:38:01.353Z,48.01
2023-05-09T00:40:28.537Z,47.88
2023-05-09T00:42:57.824Z,48.00
2023-05-09T00:45:24.598Z,47.84
2023-05-09T00:47:52.072Z,48.10
2023-05-09T00:50:18.957Z,48.23
2023-05-09T00:52:45.902Z,48.60
2023-05-09T00:55:13.198Z,48.44
2023-05-09T00:57:40.230Z,48.86
2023-05-09T01:00:12.385Z,48.92
2023-05-09T01:02:43.786Z,49.87
2023-05-09T01:05:11.003Z,50.01
2023-05-09T01:08:15.859Z,50.04
2023-05-09T01:11:03.435Z,50.01
2023-05-09T01:14:00.411Z,49.84
2023-05-09T01:16:35.036Z,49.37
2023-05-09T01:19:05.857Z,49.34
2023-05-09T01:21:33.237Z,50.13
2023-05-09T01:24:09.397Z,49.94
2023-05-09T01:26:42.380Z,49.61
2023-05-09T01:29:24.567Z,49.59
2023-05-09T01:31:51.367Z,50.04
2023-05-09T01:34:18.333Z,49.88
2023-05-09T01:36:45.242Z,49.65
2023-05-09T01:39:12.597Z,50.00
2023-05-09T01:41:39.498Z,50.57
2023-05-09T01:44:09.365Z,51.50
2023-05-09T01:46:37.062Z,51.28
2023-05-09T01:49:04.943Z,51.49
2023-05-09T01:51:32.613Z,51.97
2023-05-09T01:53:59.366Z,51.50
2023-05-09T01:56:26.295Z,51.26
2023-05-09T01:58:53.578Z,50.57
2023-05-09T02:01:20.444Z,50.70
2023-05-09T02:03:50.029Z,50.66
2023-05-09T02:06:16.980Z,50.29
2023-05-09T02:08:43.802Z,50.11
2023-05-09T02:11:10.666Z,50.61
2023-05-09T02:13:37.824Z,50.67
2023-05-09T02:16:06.108Z,51.00
2023-05-09T02:18:36.737Z,51.25
2023-05-09T02:21:03.728Z,52.34
2023-05-09T02:23:30.887Z,52.57
2023-05-09T02:25:57.988Z,52.26
2023-05-09T02:28:25.088Z,52.43
2023-05-09T02:30:52.188Z,52.43
2023-05-09T02:33:19.233Z,53.37
2023-05-09T02:35:46.230Z,53.84
2023-05-09T02:38:13.277Z,53.44
2023-05-09T02:40:41.861Z,53.25
2023-05-09T02:43:09.580Z,53.36
2023-05-09T02:45:36.538Z,53.47
2023-05-09T02:48:05.063Z,54.22
2023-05-09T02:50:33.489Z,53.78
2023-05-09T02:53:00.352Z,54.17
2023-05-09T02:55:27.940Z,53.29
2023-05-09T02:58:09.395Z,52.71
2023-05-09T03:00:40.368Z,51.73
2023-05-09T03:03:08.361Z,52.54
2023-05-09T03:05:35.374Z,53.18
2023-05-09T03:08:02.444Z,52.87
2023-05-09T03:10:29.251Z,52.72
2023-05-09T03:12:56.128Z,52.89
2023-05-09T03:15:23.208Z,52.66
2023-05-09T03:17:50.270Z,52.20
2023-05-09T03:20:17.293Z,52.08
2023-05-09T03:22:44.165Z,52.42
2023-05-09T03:25:11.748Z,52.36
2023-05-09T03:27:38.944Z,51.20
2023-05-09T03:30:09.484Z,51.07
2023-05-09T03:32:37.210Z,50.87
2023-05-09T03:35:04.350Z,50.94
2023-05-09T03:37:32.502Z,50.72
2023-05-09T03:39:59.301Z,50.48
2023-05-09T03:42:26.392Z,49.78
2023-05-09T03:44:55.896Z,49.71
2023-05-09T03:47:22.801Z,49.60
2023-05-09T03:49:50.225Z,49.19
2023-05-09T03:52:18.930Z,49.06
2023-05-09T03:54:46.310Z,49.40
2023-05-09T03:57:13.222Z,49.31
2023-05-09T03:59:40.245Z,48.34
2023-05-09T04:02:07.102Z,47.97
2023-05-09T04:04:34.926Z,48.03
2023-05-09T04:07:02.183Z,48.09
2023-05-09T04:09:29.922Z,48.38
2023-05-09T04:11:56.757Z,49.32
2023-05-09T04:14:23.725Z,49.09
2023-05-09T04:19:49.579Z,47.81
2023-05-09T04:22:17.440Z,47.58
2023-05-09T04:24:44.480Z,47.04
2023-05-09T04:27:11.433Z,45.55
2023-05-09T04:29:38.731Z,45.51
2023-05-09T04:32:05.997Z,45.33
2023-05-09T04:34:33.381Z,45.75
2023-05-09T04:37:03.304Z,44.65
2023-05-09T04:39:30.439Z,43.85
2023-05-09T04:42:03.842Z,44.18
2023-05-09T04:44:31.457Z,44.51
2023-05-09T04:47:00.153Z,44.50
2023-05-09T04:49:28.362Z,43.82
2023-05-09T04:51:56.739Z,43.45
2023-05-09T04:54:23.764Z,42.96
2023-05-09T04:56:53.134Z,43.21
2023-05-09T04:59:20.740Z,43.46
2023-05-09T05:01:47.755Z,43.81
2023-05-09T05:04:14.731Z,43.47
2023-05-09T05:06:42.056Z,43.54
2023-05-09T05:09:10.043Z,43.27
2023-05-09T05:11:36.798Z,42.71
2023-05-09T05:14:04.023Z,42.77
2023-05-09T05:16:30.958Z,42.35
2023-05-09T05:18:57.755Z,43.11
2023-05-09T05:21:25.124Z,43.32
2023-05-09T05:23:51.893Z,43.32
2023-05-09T05:26:20.528Z,42.77
2023-05-09T05:28:47.774Z,42.40
2023-05-09T05:31:14.771Z,43.11
2023-05-09T05:33:42.071Z,43.12
2023-05-09T05:36:09.273Z,42.53
2023-05-09T05:38:36.214Z,41.50
2023-05-09T05:41:03.933Z,41.38
2023-05-09T05:43:31.028Z,42.42
2023-05-09T05:45:57.922Z,41.82
2023-05-09T05:48:26.214Z,42.18
2023-05-09T05:50:53.437Z,42.93
2023-05-09T05:53:23.323Z,42.36
2023-05-09T05:55:50.402Z,42.60
2023-05-09T05:58:17.448Z,43.49
2023-05-09T06:00:44.416Z,42.96
2023-05-09T06:03:13.725Z,42.33
2023-05-09T06:05:44.803Z,41.86
2023-05-09T06:08:12.724Z,42.04
2023-05-09T06:10:39.513Z,41.46
2023-05-09T06:13:06.682Z,41.02
2023-05-09T06:15:34.028Z,40.99
2023-05-09T06:18:01.506Z,39.83
2023-05-09T06:20:28.794Z,40.86
2023-05-09T06:22:55.860Z,40.41
2023-05-09T06:25:22.601Z,40.02
2023-05-09T06:27:49.723Z,40.17
2023-05-09T06:30:25.317Z,39.69
2023-05-09T06:32:54.005Z,38.59
2023-05-09T06:35:21.397Z,38.33
2023-05-09T06:37:49.231Z,38.00
2023-05-09T06:40:16.803Z,38.74
2023-05-09T06:42:44.739Z,38.69
2023-05-09T06:45:11.752Z,37.98
2023-05-09T06:47:39.085Z,37.94
2023-05-09T06:50:06.708Z,36.96
2023-05-09T06:52:33.901Z,36.30
2023-05-09T06:55:00.799Z,36.34
2023-05-09T06:57:27.654Z,36.18
2023-05-09T06:59:54.700Z,35.53
2023-05-09T07:02:21.468Z,35.12
2023-05-09T07:04:48.728Z,34.56
2023-05-09T07:07:15.824Z,34.22
2023-05-09T07:09:42.664Z,33.12
2023-05-09T07:12:09.637Z,33.21
2023-05-09T07:14:36.604Z,33.33
2023-05-09T07:17:21.223Z,32.77
2023-05-09T07:19:50.165Z,31.48
2023-05-09T07:22:17.216Z,31.02
2023-05-09T07:24:45.880Z,30.86
2023-05-09T07:27:12.884Z,30.81
2023-05-09T07:29:40.127Z,30.43
2023-05-09T07:32:07.057Z,30.08
2023-05-09T07:34:35.179Z,29.58
2023-05-09T07:37:02.231Z,29.50
2023-05-09T07:39:29.296Z,29.85
2023-05-09T07:41:57.001Z,29.85
2023-05-09T07:44:24.218Z,29.22
2023-05-09T07:46:51.030Z,29.46
2023-05-09T07:49:18.025Z,29.40
2023-05-09T07:51:44.927Z,29.10
2023-05-09T07:54:11.774Z,28.85
2023-05-09T07:56:38.689Z,28.49
2023-05-09T07:59:05.683Z,27.98
2023-05-09T08:01:32.831Z,27.42
2023-05-09T08:03:59.801Z,26.63
2023-05-09T08:06:26.839Z,26.29
2023-05-09T08:08:53.725Z,27.05
2023-05-09T08:11:20.901Z,26.42
2023-05-09T08:13:48.041Z,26.62
2023-05-09T08:16:17.815Z,25.57
2023-05-09T08:18:45.788Z,25.67
2023-05-09T08:21:13.005Z,25.84
2023-05-09T08:23:40.735Z,25.61
2023-05-09T08:26:07.894Z,25.83
2023-05-09T08:28:35.218Z,25.69
2023-05-09T08:31:02.667Z,25.23
2023-05-09T08:33:30.070Z,25.19
2023-05-09T08:35:57.210Z,24.95
2023-05-09T08:38:24.255Z,24.48
2023-05-09T08:40:51.554Z,24.75
2023-05-09T08:43:18.755Z,24.77
2023-05-09T08:45:53.972Z,24.01
2023-05-09T08:48:21.223Z,23.44
2023-05-09T08:50:48.083Z,23.85
2023-05-09T08:53:15.285Z,23.43
2023-05-09T08:55:42.335Z,23.64
2023-05-09T08:58:10.102Z,23.76
2023-05-09T09:00:40.598Z,23.11
2023-05-09T09:03:08.797Z,22.52
2023-05-09T09:05:41.867Z,22.54
2023-05-09T09:08:09.477Z,22.75
2023-05-09T09:10:36.292Z,23.27
2023-05-09T09:13:04.502Z,22.73
2023-05-09T09:15:36.507Z,22.57
2023-05-09T09:18:06.378Z,22.05
2023-05-09T09:20:34.057Z,21.76
2023-05-09T09:23:01.541Z,22.13
2023-05-09T09:25:30.059Z,22.08
2023-05-09T09:27:57.389Z,20.80
2023-05-09T09:30:25.027Z,20.40
2023-05-09T09:32:52.267Z,20.35
2023-05-09T09:35:19.940Z,20.62
2023-05-09T09:37:47.627Z,20.40
2023-05-09T09:40:14.643Z,20.23
2023-05-09T09:42:43.727Z,19.64
2023-05-09T09:45:15.998Z,19.91
2023-05-09T09:47:44.254Z,19.66
2023-05-09T09:50:18.781Z,19.81
2023-05-09T09:52:54.013Z,20.84
2023-05-09T09:55:22.370Z,20.98
2023-05-09T09:57:49.563Z,21.17
2023-05-09T10:00:18.262Z,21.77
2023-05-09T10:02:49.596Z,21.95
2023-05-09T10:05:21.975Z,22.29
2023-05-09T10:08:01.079Z,22.85
2023-05-09T10:10:30.936Z,23.57
2023-05-09T10:13:00.917Z,23.90
2023-05-09T10:15:30.129Z,24.35
2023-05-09T10:18:04.110Z,25.20
2023-05-09T10:20:31.648Z,25.04
2023-05-09T10:23:01.284Z,24.77
2023-05-09T10:25:53.339Z,25.65
2023-05-09T10:28:23.028Z,24.12
2023-05-09T10:31:13.072Z,24.15
2023-05-09T10:33:48.085Z,23.81
2023-05-09T10:36:21.675Z,24.32
2023-05-09T10:38:49.871Z,24.94
2023-05-09T10:41:18.166Z,24.79
2023-05-09T10:43:45.872Z,24.87
2023-05-09T10:46:13.141Z,25.10
2023-05-09T10:48:40.400Z,24.24
2023-05-09T10:51:07.730Z,23.74
2023-05-09T10:53:45.233Z,23.49
2023-05-09T10:56:21.926Z,23.43
2023-05-09T10:58:48.799Z,23.19
2023-05-09T11:01:27.403Z,23.41
2023-05-09T11:03:55.950Z,23.32
2023-05-09T11:06:45.572Z,23.83
2023-05-09T11:09:28.590Z,24.55
2023-05-09T11:11:57.617Z,25.20
2023-05-09T11:14:55.598Z,25.54
2023-05-09T11:17:22.483Z,25.65
2023-05-09T11:19:49.739Z,25.29
2023-05-09T11:22:20.930Z,24.42
2023-05-09T11:24:51.728Z,24.19
2023-05-09T11:27:25.879Z,24.58
2023-05-09T11:29:54.193Z,25.08
2023-05-09T11:32:22.196Z,25.21
2023-05-09T11:34:49.197Z,25.22
2023-05-09T11:37:17.099Z,25.29
2023-05-09T11:40:01.853Z,25.72
2023-05-09T11:42:28.956Z,25.18
2023-05-09T11:44:57.180Z,24.92
2023-05-09T11:47:24.877Z,25.40
2023-05-09T11:49:51.758Z,25.98
2023-05-09T11:52:19.039Z,25.80
2023-05-09T11:54:45.882Z,25.85
2023-05-09T11:57:16.746Z,26.53
2023-05-09T11:59:47.087Z,26.91
2023-05-09T12:02:13.958Z,26.58
2023-05-09T12:04:40.920Z,26.66
2023-05-09T12:07:08.318Z,26.55
2023-05-09T12:09:38.711Z,26.88
2023-05-09T12:12:12.466Z,27.25
2023-05-09T12:14:41.327Z,27.37
2023-05-09T12:17:08.227Z,27.60
2023-05-09T12:19:36.504Z,27.75
2023-05-09T12:22:06.462Z,27.92
2023-05-09T12:24:35.132Z,28.26
2023-05-09T12:27:02.333Z,27.95
2023-05-09T12:29:30.212Z,27.83
2023-05-09T12:31:58.141Z,27.84
2023-05-09T12:34:25.148Z,28.15
2023-05-09T12:36:52.889Z,28.40
2023-05-09T12:39:25.677Z,28.34
2023-05-09T12:42:01.697Z,28.39
2023-05-09T12:44:29.820Z,28.00
2023-05-09T12:47:02.402Z,28.33
2023-05-09T12:49:30.578Z,28.57
2023-05-09T12:51:59.384Z,28.55
2023-05-09T12:54:27.211Z,28.56
2023-05-09T12:56:56.508Z,28.45
2023-05-09T12:59:25.739Z,28.65
2023-05-09T13:01:54.550Z,28.57
2023-05-09T13:04:21.821Z,29.14
2023-05-09T13:06:57.333Z,29.43
2023-05-09T13:09:25.932Z,29.00
2023-05-09T13:11:53.252Z,29.55
2023-05-09T13:14:23.714Z,29.44
2023-05-09T13:16:50.633Z,29.24
2023-05-09T13:19:17.632Z,29.07
2023-05-09T13:21:44.449Z,29.53
2023-05-09T13:24:11.195Z,29.56
2023-05-09T13:26:38.605Z,29.79
2023-05-09T13:29:05.548Z,29.67
2023-05-09T13:31:33.524Z,29.77
2023-05-09T13:34:00.694Z,30.00
2023-05-09T13:36:27.432Z,30.14
2023-05-09T13:38:54.199Z,30.29
2023-05-09T13:41:21.883Z,30.07
2023-05-09T13:43:49.038Z,29.87
2023-05-09T13:46:15.978Z,28.95
2023-05-09T13:48:43.895Z,29.18
2023-05-09T13:51:10.953Z,29.31
2023-05-09T13:53:39.158Z,29.62
2023-05-09T13:56:08.970Z,29.86
2023-05-09T13:58:36.480Z,30.18
2023-05-09T14:01:03.495Z,30.21
2023-05-09T14:03:31.372Z,30.11
2023-05-09T14:05:58.366Z,30.17
2023-05-09T14:08:25.398Z,30.16
2023-05-09T14:10:52.504Z,29.87
2023-05-09T14:13:19.757Z,29.76
2023-05-09T14:15:46.968Z,29.67
2023-05-09T14:18:17.133Z,29.51
2023-05-09T14:20:45.473Z,29.47
2023-05-09T14:23:13.083Z,29.45
2023-05-09T14:25:40.286Z,29.77
2023-05-09T14:28:09.078Z,30.16
2023-05-09T14:30:36.967Z,30.17
2023-05-09T14:33:03.848Z,29.97
2023-05-09T14:35:33.672Z,30.07
2023-05-09T14:38:01.036Z,30.08
2023-05-09T14:40:33.918Z,30.31
2023-05-09T14:43:02.023Z,30.48
2023-05-09T14:45:29.786Z,30.42
2023-05-09T14:47:57.190Z,30.81
2023-05-09T14:50:24.180Z,30.99
2023-05-09T14:52:51.221Z,30.77
2023-05-09T14:55:18.861Z,30.75
2023-05-09T14:57:45.643Z,30.49
2023-05-09T15:00:21.162Z,30.96
2023-05-09T15:02:49.438Z,31.20
2023-05-09T15:05:16.403Z,31.16
2023-05-09T15:07:43.763Z,30.99
2023-05-09T15:10:10.821Z,30.99
2023-05-09T15:12:38.231Z,31.19
2023-05-09T15:15:16.356Z,30.97
2023-05-09T15:17:44.178Z,31.26
2023-05-09T15:20:11.782Z,31.46
2023-05-09T15:22:38.680Z,31.94
2023-05-09T15:25:06.338Z,31.88
2023-05-09T15:27:34.359Z,31.85
2023-05-09T15:30:02.143Z,31.80
2023-05-09T15:32:30.576Z,32.12
2023-05-09T15:34:57.567Z,32.64
2023-05-09T15:37:24.616Z,32.38
2023-05-09T15:39:51.665Z,32.36
2023-05-09T15:42:19.255Z,32.68
2023-05-09T15:44:46.687Z,32.26
2023-05-09T15:50:19.087Z,32.39
2023-05-09T15:52:46.891Z,32.48
2023-05-09T15:55:14.153Z,32.52
2023-05-09T15:57:41.670Z,32.72
2023-05-09T16:00:12.732Z,32.87
2023-05-09T16:02:42.092Z,33.02
2023-05-09T16:05:09.473Z,33.11
2023-05-09T16:07:36.974Z,33.36
2023-05-09T16:10:04.735Z,33.60
2023-05-09T16:12:32.267Z,33.59
2023-05-09T16:14:59.441Z,33.60
2023-05-09T16:17:26.409Z,33.64
2023-05-09T16:19:55.770Z,33.55
2023-05-09T16:22:23.404Z,33.85
2023-05-09T16:24:52.317Z,34.06
2023-05-09T16:27:22.282Z,34.25
2023-05-09T16:29:49.952Z,34.11
2023-05-09T16:32:18.543Z,34.38
2023-05-09T16:36:35.487Z,34.75
2023-05-09T16:39:05.362Z,34.81
2023-05-09T16:41:32.830Z,34.98
2023-05-09T16:44:00.487Z,34.88
2023-05-09T16:46:27.923Z,34.81
2023-05-09T16:48:55.870Z,34.88
2023-05-09T16:51:23.130Z,34.83
2023-05-09T16:56:32.368Z,35.26
2023-05-09T16:58:59.582Z,35.73
2023-05-09T17:01:26.924Z,35.53
2023-05-09T17:03:54.337Z,35.80
2023-05-09T17:06:21.645Z,36.03
2023-05-09T17:08:48.831Z,36.03
2023-05-09T17:11:16.018Z,36.20
2023-05-09T17:13:43.597Z,36.39
2023-05-09T17:16:11.469Z,36.44
2023-05-09T17:18:38.672Z,36.48
2023-05-09T17:21:06.210Z,36.71
2023-05-09T17:23:33.905Z,37.13
2023-05-09T17:26:00.836Z,37.28
2023-05-09T17:28:28.224Z,37.29
2023-05-09T17:30:55.205Z,37.28
2023-05-09T17:33:22.312Z,37.37
2023-05-09T17:35:49.678Z,37.35
2023-05-09T17:38:16.815Z,37.74
2023-05-09T17:40:44.915Z,37.92
2023-05-09T17:43:12.726Z,37.90
2023-05-09T17:45:39.663Z,38.10
2023-05-09T17:48:06.664Z,38.31
2023-05-09T17:50:33.758Z,38.58
2023-05-09T17:53:02.628Z,38.48
2023-05-09T17:55:37.294Z,38.82
2023-05-09T17:58:04.298Z,38.59
2023-05-09T18:00:31.267Z,38.61
2023-05-09T18:02:59.866Z,38.80
2023-05-09T18:05:31.618Z,38.67
2023-05-09T18:08:00.884Z,39.12
2023-05-09T18:10:28.446Z,39.28
2023-05-09T18:12:55.466Z,39.50
2023-05-09T18:15:23.939Z,39.52
2023-05-09T18:17:51.003Z,39.53
2023-05-09T18:20:18.074Z,39.65
2023-05-09T18:22:46.155Z,39.72
2023-05-09T18:25:13.388Z,39.49
2023-05-09T18:27:56.975Z,39.48
2023-05-09T18:30:24.665Z,39.40
2023-05-09T18:32:54.280Z,39.29
2023-05-09T18:35:22.259Z,39.25
2023-05-09T18:37:50.556Z,39.16
2023-05-09T18:40:36.874Z,39.12
2023-05-09T18:43:04.841Z,39.20
2023-05-09T18:45:33.866Z,39.43
2023-05-09T18:48:04.616Z,39.56
2023-05-09T18:50:34.114Z,39.82
2023-05-09T18:53:03.775Z,40.17
2023-05-09T19:02:34.101Z,41.60
2023-05-09T19:08:16.930Z,42.59
2023-05-09T19:11:10.534Z,43.06
2023-05-09T19:18:34.689Z,44.24
2023-05-09T19:21:03.291Z,44.48
2023-05-09T19:23:32.462Z,44.62
2023-05-09T19:25:59.397Z,44.94
2023-05-09T19:28:29.206Z,45.31
2023-05-09T19:30:57.322Z,45.46
2023-05-09T19:33:33.152Z,45.59
2023-05-09T19:36:00.289Z,46.03
2023-05-09T19:38:27.355Z,46.04
2023-05-09T19:40:56.739Z,46.19
2023-05-09T19:43:24.026Z,46.54
2023-05-09T19:45:50.993Z,46.92
2023-05-09T19:48:17.888Z,46.97
2023-05-09T19:50:46.024Z,47.28
2023-05-09T19:53:13.881Z,47.17
2023-05-09T19:55:41.994Z,47.42
2023-05-09T19:58:08.996Z,47.72
2023-05-09T20:00:38.521Z,47.76
2023-05-09T20:03:05.683Z,47.92
2023-05-09T20:05:33.208Z,48.23
2023-05-09T20:08:00.142Z,48.35
2023-05-09T20:10:28.783Z,48.83
2023-05-09T20:12:58.598Z,48.67
2023-05-09T20:15:25.579Z,48.86
2023-05-09T20:17:52.441Z,48.92
2023-05-09T20:20:19.314Z,49.03
2023-05-09T20:22:46.486Z,49.18
2023-05-09T20:25:14.147Z,49.40
2023-05-09T20:27:41.030Z,49.56
2023-05-09T20:30:08.473Z,49.80
2023-05-09T20:32:35.846Z,50.34
2023-05-09T20:35:02.880Z,50.26
2023-05-09T20:37:30.709Z,50.53
2023-05-09T20:39:57.513Z,50.72
2023-05-09T20:42:25.129Z,50.89
2023-05-09T20:44:53.974Z,50.99
2023-05-09T20:47:20.865Z,51.32
2023-05-09T20:49:47.655Z,51.53
2023-05-09T20:52:14.656Z,51.69
2023-05-09T20:54:41.643Z,52.10
2023-05-09T20:57:08.455Z,52.21
2023-05-09T20:59:35.295Z,52.22
2023-05-09T21:02:02.447Z,52.33
2023-05-09T21:04:29.401Z,52.58
2023-05-09T21:06:56.248Z,52.81
2023-05-09T21:09:23.078Z,53.43
2023-05-09T21:11:49.959Z,53.99
2023-05-09T21:14:17.620Z,54.12
2023-05-09T21:16:45.913Z,54.06
2023-05-09T21:19:12.808Z,54.17
2023-05-09T21:21:39.683Z,54.52
2023-05-09T21:24:08.512Z,55.23
2023-05-09T21:26:35.779Z,55.46
2023-05-09T21:29:02.704Z,55.83
2023-05-09T21:31:29.673Z,56.42
2023-05-09T21:33:58.034Z,56.24
2023-05-09T21:36:25.082Z,56.51
2023-05-09T21:38:52.004Z,56.85
2023-05-09T21:41:21.531Z,57.15
2023-05-09T21:43:48.644Z,57.50
2023-05-09T21:46:15.543Z,57.68
2023-05-09T21:48:42.404Z,57.99
2023-05-09T21:51:09.353Z,58.23
2023-05-09T21:53:36.439Z,58.52
2023-05-09T21:56:03.560Z,59.23
2023-05-09T21:58:30.521Z,60.74
2023-05-09T22:00:57.326Z,60.42
2023-05-09T22:03:24.514Z,59.71
2023-05-09T22:05:51.518Z,59.02
2023-05-09T22:10:37.838Z,59.61
2023-05-09T22:13:04.986Z,59.66
2023-05-09T22:15:32.147Z,60.31
2023-05-09T22:17:59.130Z,60.82
2023-05-09T22:20:26.266Z,59.93
2023-05-09T22:22:53.052Z,60.05
2023-05-09T22:25:20.539Z,59.84
2023-05-09T22:27:47.323Z,59.51
2023-05-09T22:30:14.242Z,59.71
2023-05-09T22:32:41.790Z,59.68
2023-05-09T22:35:08.851Z,59.29
2023-05-09T22:37:35.889Z,59.32
2023-05-09T22:40:03.009Z,59.57
2023-05-09T22:42:30.489Z,59.65
2023-05-09T22:44:57.713Z,60.26
2023-05-09T22:47:24.659Z,62.25
2023-05-09T22:49:51.624Z,64.20
2023-05-09T22:52:18.428Z,64.63
2023-05-09T22:54:45.428Z,65.10
2023-05-09T22:57:12.290Z,66.13
2023-05-09T22:59:39.225Z,67.52
2023-05-09T23:02:06.097Z,68.15
2023-05-09T23:04:33.191Z,66.22
2023-05-09T23:07:00.345Z,67.47
2023-05-09T23:09:27.923Z,69.12
2023-05-09T23:11:55.456Z,70.55
2023-05-09T23:14:22.200Z,71.22
2023-05-09T23:16:50.311Z,71.58
2023-05-09T23:19:17.207Z,72.22
2023-05-09T23:21:44.133Z,72.42
2023-05-09T23:24:11.129Z,73.16
2023-05-09T23:26:38.078Z,73.63
2023-05-09T23:29:04.790Z,72.96
2023-05-09T23:31:31.619Z,73.14
2023-05-09T23:33:59.391Z,74.13
2023-05-09T23:36:26.239Z,74.51
2023-05-09T23:38:53.077Z,75.41
2023-05-09T23:41:21.432Z,76.50
2023-05-09T23:43:48.212Z,77.04
2023-05-09T23:46:15.559Z,77.80
2023-05-09T23:48:42.553Z,78.55
2023-05-09T23:51:09.280Z,78.78
2023-05-09T23:53:36.538Z,78.64
2023-05-09T23:56:03.619Z,79.35
2023-05-09T23:58:33.284Z,79.81
